El Moro, Colorado
Current Conditions -  °F | °C
As of 4:53 PM on Wednesday 24 Dec 2014 (Local Time) from KRTN Reporting Station
Clear Clear  
Wind Chill: -9°   Ceiling: Unl
Heat Index: -4°   Visibility: 10mi
Dew Point: -12°   Wind: 7mph
Humidity: 57%   Direction: 360°N
Pressure: 29.8"   Gusts: NA
Location:  37.1661°N, 104.486°W
Report Text: KRTN 242353Z AUTO 36006KT 10SM CLR M04/M12 A2980 RMK AO2 SLP151 T10441117 10017 21056 58015
Loading
Personal Weather Stations






























Interactive Weather Map New forecast layout! Learn more

10-Day Weather Forecast

Advertisements
Track Severe Weather on mobile